Time,TemperatureF,DewpointF,PressureIn,WindDirection,WindDirectionDegrees,WindSpeedMPH,WindSpeedGustMPH,Humidity,HourlyPrecipIn,Conditions,Clouds,dailyrainin,SoftwareType,DateUTC
2013-07-18 00:00:00,77.2,70.2,30.16,SE,135,0.0,0.0,79,0.00,,,0.00,WUHU216HW,2013-07-18 04:00:00,
2013-07-18 00:01:00,77.2,70.2,30.16,SE,135,0.0,0.0,79,0.00,,,0.00,WUHU216HW,2013-07-18 04:01:00,
2013-07-18 00:02:00,77.2,70.2,30.16,SE,135,0.0,0.0,79,0.00,,,0.00,WUHU216HW,2013-07-18 04:02:00,
2013-07-18 00:07:00,77.2,70.2,30.16,SE,135,0.0,0.0,79,0.00,,,0.00,WUHU216HW,2013-07-18 04:07:00,
2013-07-18 00:29:00,77.8,70.8,30.16,SSW,203,1.4,1.4,79,0.00,,,0.00,WUHU216HW,2013-07-18 04:29:00,
2013-07-18 00:30:00,77.8,70.8,30.16,SSW,203,1.4,1.4,79,0.00,,,0.00,WUHU216HW,2013-07-18 04:30:00,
2013-07-18 00:35:00,77.8,70.8,30.16,SSW,203,1.4,1.4,79,0.00,,,0.00,WUHU216HW,2013-07-18 04:35:00,
2013-07-18 00:59:00,77.2,69.9,30.17,SSE,158,2.2,2.2,78,0.00,,,0.00,WUHU216HW,2013-07-18 04:59:00,
2013-07-18 01:00:00,77.2,69.9,30.17,SSE,158,2.2,2.2,78,0.00,,,0.00,WUHU216HW,2013-07-18 05:00:00,
2013-07-18 01:05:00,77.2,69.9,30.17,SSE,158,2.2,2.2,78,0.00,,,0.00,WUHU216HW,2013-07-18 05:05:00,
2013-07-18 01:29:00,76.7,69.7,30.16,SE,135,0.8,0.8,79,0.00,,,0.00,WUHU216HW,2013-07-18 05:29:00,
2013-07-18 01:30:00,76.7,69.7,30.16,SE,135,0.8,0.8,79,0.00,,,0.00,WUHU216HW,2013-07-18 05:30:00,
2013-07-18 01:35:00,76.7,69.7,30.16,SE,135,0.8,0.8,79,0.00,,,0.00,WUHU216HW,2013-07-18 05:35:00,
2013-07-18 01:59:00,76.5,69.9,30.16,South,180,0.0,0.0,80,0.00,,,0.00,WUHU216HW,2013-07-18 05:59:00,
2013-07-18 02:00:00,76.5,69.9,30.16,South,180,0.0,0.0,80,0.00,,,0.00,WUHU216HW,2013-07-18 06:00:00,
2013-07-18 02:05:00,76.5,69.9,30.16,South,180,0.0,0.0,80,0.00,,,0.00,WUHU216HW,2013-07-18 06:05:00,
2013-07-18 02:29:00,76.0,69.0,30.16,SE,135,0.0,0.0,79,0.00,,,0.00,WUHU216HW,2013-07-18 06:29:00,
2013-07-18 02:30:00,76.0,69.0,30.16,SE,135,0.0,0.0,79,0.00,,,0.00,WUHU216HW,2013-07-18 06:30:00,
2013-07-18 02:35:00,76.0,69.0,30.16,SE,135,0.0,0.0,79,0.00,,,0.00,WUHU216HW,2013-07-18 06:35:00,
2013-07-18 03:00:00,75.4,69.6,30.15,SSW,203,1.8,1.8,82,0.00,,,0.00,WUHU216HW,2013-07-18 07:00:00,
2013-07-18 03:05:00,75.4,69.6,30.15,SSW,203,1.8,1.8,82,0.00,,,0.00,WUHU216HW,2013-07-18 07:05:00,
2013-07-18 03:30:00,75.4,69.3,30.15,SSW,203,0.4,0.4,81,0.00,,,0.00,WUHU216HW,2013-07-18 07:30:00,
2013-07-18 03:35:00,75.4,69.3,30.15,SSW,203,0.4,0.4,81,0.00,,,0.00,WUHU216HW,2013-07-18 07:35:00,
2013-07-18 04:00:00,74.9,68.8,30.14,SSW,203,0.0,0.0,81,0.00,,,0.00,WUHU216HW,2013-07-18 08:00:00,
2013-07-18 04:05:00,74.9,68.8,30.14,SSW,203,0.0,0.0,81,0.00,,,0.00,WUHU216HW,2013-07-18 08:05:00,
2013-07-18 04:30:00,74.9,68.8,30.14,SSW,203,0.0,0.0,81,0.00,,,0.00,WUHU216HW,2013-07-18 08:30:00,
2013-07-18 04:35:00,74.9,68.8,30.14,SSW,203,0.0,0.0,81,0.00,,,0.00,WUHU216HW,2013-07-18 08:35:00,
2013-07-18 05:00:00,74.7,68.6,30.13,South,180,0.0,0.0,81,0.00,,,0.00,WUHU216HW,2013-07-18 09:00:00,
2013-07-18 05:05:00,74.7,68.6,30.13,South,180,0.0,0.0,81,0.00,,,0.00,WUHU216HW,2013-07-18 09:05:00,
2013-07-18 05:30:00,74.5,68.4,30.14,South,180,0.4,0.4,81,0.00,,,0.00,WUHU216HW,2013-07-18 09:30:00,
2013-07-18 05:35:00,74.5,68.4,30.14,South,180,0.4,0.4,81,0.00,,,0.00,WUHU216HW,2013-07-18 09:35:00,
2013-07-18 06:00:00,74.5,68.4,30.15,South,180,0.8,0.8,81,0.00,,,0.00,WUHU216HW,2013-07-18 10:00:00,
2013-07-18 06:05:00,74.5,68.4,30.15,South,180,0.8,0.8,81,0.00,,,0.00,WUHU216HW,2013-07-18 10:05:00,
2013-07-18 06:30:00,74.3,68.2,30.15,SSE,158,0.0,0.0,81,0.00,,,0.00,WUHU216HW,2013-07-18 10:30:00,
2013-07-18 06:35:00,74.3,68.2,30.15,SSE,158,0.0,0.0,81,0.00,,,0.00,WUHU216HW,2013-07-18 10:35:00,
2013-07-18 07:00:00,74.3,68.2,30.15,SSE,158,0.0,0.0,81,0.00,,,0.00,WUHU216HW,2013-07-18 11:00:00,
2013-07-18 07:05:00,74.3,68.2,30.15,SSE,158,0.0,0.0,81,0.00,,,0.00,WUHU216HW,2013-07-18 11:05:00,
2013-07-18 07:30:00,74.5,68.4,30.16,SSE,158,0.0,0.0,81,0.00,,,0.00,WUHU216HW,2013-07-18 11:30:00,
2013-07-18 07:35:00,74.5,68.4,30.16,SSE,158,0.0,0.0,81,0.00,,,0.00,WUHU216HW,2013-07-18 11:35:00,
2013-07-18 08:00:00,75.1,69.0,30.17,SSE,158,0.0,0.0,81,0.00,,,0.00,WUHU216HW,2013-07-18 12:00:00,
2013-07-18 08:05:00,75.1,69.0,30.17,SSE,158,0.0,0.0,81,0.00,,,0.00,WUHU216HW,2013-07-18 12:05:00,
2013-07-18 08:30:00,76.0,69.8,30.16,SSE,158,0.0,0.0,81,0.00,,,0.00,WUHU216HW,2013-07-18 12:30:00,
2013-07-18 08:35:00,76.0,69.8,30.16,SSE,158,0.0,0.0,81,0.00,,,0.00,WUHU216HW,2013-07-18 12:35:00,
2013-07-18 09:00:00,77.2,70.9,30.17,SSE,158,0.0,0.0,81,0.00,,,0.00,WUHU216HW,2013-07-18 13:00:00,
2013-07-18 09:05:00,77.2,70.9,30.17,SSE,158,0.0,0.0,81,0.00,,,0.00,WUHU216HW,2013-07-18 13:05:00,
2013-07-18 09:30:00,78.3,71.6,30.16,SSE,158,0.0,0.0,80,0.00,,,0.00,WUHU216HW,2013-07-18 13:30:00,
2013-07-18 09:35:00,78.3,71.6,30.16,SSE,158,0.0,0.0,80,0.00,,,0.00,WUHU216HW,2013-07-18 13:35:00,
2013-07-18 10:00:00,80.3,73.3,30.16,SE,135,0.4,0.4,79,0.00,,,0.00,WUHU216HW,2013-07-18 14:00:00,
2013-07-18 10:05:00,80.3,73.3,30.16,SE,135,0.4,0.4,79,0.00,,,0.00,WUHU216HW,2013-07-18 14:05:00,
2013-07-18 10:30:00,81.9,74.0,30.16,SE,135,0.0,0.0,77,0.00,,,0.00,WUHU216HW,2013-07-18 14:30:00,
2013-07-18 10:35:00,81.9,74.0,30.16,SE,135,0.0,0.0,77,0.00,,,0.00,WUHU216HW,2013-07-18 14:35:00,
2013-07-18 11:00:00,83.7,74.9,30.16,South,180,0.0,0.0,75,0.00,,,0.00,WUHU216HW,2013-07-18 15:00:00,
2013-07-18 11:05:00,83.7,74.9,30.16,South,180,0.0,0.0,75,0.00,,,0.00,WUHU216HW,2013-07-18 15:05:00,
2013-07-18 11:30:00,85.0,74.5,30.16,ESE,113,0.0,0.0,71,0.00,,,0.00,WUHU216HW,2013-07-18 15:30:00,
2013-07-18 11:35:00,85.0,74.5,30.16,ESE,113,0.0,0.0,71,0.00,,,0.00,WUHU216HW,2013-07-18 15:35:00,
2013-07-18 11:59:00,85.3,74.1,30.16,SSE,158,0.8,0.8,69,0.00,,,0.00,WUHU216HW,2013-07-18 15:59:00,
2013-07-18 12:00:00,85.3,74.1,30.16,SSE,158,0.8,0.8,69,0.00,,,0.00,WUHU216HW,2013-07-18 16:00:00,
2013-07-18 12:05:00,85.3,74.1,30.16,SSE,158,0.8,0.8,69,0.00,,,0.00,WUHU216HW,2013-07-18 16:05:00,
2013-07-18 12:30:00,90.2,75.0,30.16,WSW,248,0.0,0.0,61,0.00,,,0.00,WUHU216HW,2013-07-18 16:30:00,
2013-07-18 12:35:00,90.2,75.0,30.16,WSW,248,0.0,0.0,61,0.00,,,0.00,WUHU216HW,2013-07-18 16:35:00,
2013-07-18 12:59:00,90.9,74.6,30.16,SE,135,0.0,0.0,59,0.00,,,0.00,WUHU216HW,2013-07-18 16:59:00,
2013-07-18 13:00:00,90.9,74.6,30.16,SE,135,0.0,0.0,59,0.00,,,0.00,WUHU216HW,2013-07-18 17:00:00,
2013-07-18 13:05:00,90.9,74.6,30.16,SE,135,0.0,0.0,59,0.00,,,0.00,WUHU216HW,2013-07-18 17:05:00,
2013-07-18 13:30:00,93.1,74.4,30.15,SE,135,0.4,0.4,55,0.00,,,0.00,WUHU216HW,2013-07-18 17:30:00,
2013-07-18 13:35:00,93.1,74.4,30.15,SE,135,0.4,0.4,55,0.00,,,0.00,WUHU216HW,2013-07-18 17:35:00,
2013-07-18 13:59:00,91.8,72.7,30.14,SSW,203,0.4,0.4,54,0.00,,,0.00,WUHU216HW,2013-07-18 17:59:00,
2013-07-18 14:00:00,91.8,72.7,30.14,SSW,203,0.4,0.4,54,0.00,,,0.00,WUHU216HW,2013-07-18 18:00:00,
2013-07-18 14:05:00,91.8,72.7,30.14,SSW,203,0.4,0.4,54,0.00,,,0.00,WUHU216HW,2013-07-18 18:05:00,
2013-07-18 14:29:00,92.0,74.0,30.12,South,180,0.0,0.0,56,0.00,,,0.00,WUHU216HW,2013-07-18 18:29:00,
2013-07-18 14:30:00,92.0,74.0,30.12,South,180,0.0,0.0,56,0.00,,,0.00,WUHU216HW,2013-07-18 18:30:00,
2013-07-18 14:35:00,92.0,74.0,30.12,South,180,0.0,0.0,56,0.00,,,0.00,WUHU216HW,2013-07-18 18:35:00,
2013-07-18 14:59:00,92.3,76.0,30.11,SSW,203,0.0,0.0,59,0.00,,,0.00,WUHU216HW,2013-07-18 18:59:00,
2013-07-18 15:00:00,92.3,76.0,30.11,SSW,203,0.0,0.0,59,0.00,,,0.00,WUHU216HW,2013-07-18 19:00:00,
2013-07-18 15:05:00,92.3,76.0,30.11,SSW,203,0.0,0.0,59,0.00,,,0.00,WUHU216HW,2013-07-18 19:05:00,
2013-07-18 15:29:00,90.7,73.4,30.11,SSE,158,0.0,0.0,57,0.00,,,0.00,WUHU216HW,2013-07-18 19:29:00,
2013-07-18 15:30:00,90.7,73.4,30.11,SSE,158,0.0,0.0,57,0.00,,,0.00,WUHU216HW,2013-07-18 19:30:00,
2013-07-18 15:35:00,90.7,73.4,30.11,SSE,158,0.0,0.0,57,0.00,,,0.00,WUHU216HW,2013-07-18 19:35:00,
2013-07-18 15:59:00,90.2,74.4,30.10,ESE,113,0.0,0.0,60,0.00,,,0.00,WUHU216HW,2013-07-18 19:59:00,
2013-07-18 16:00:00,90.2,74.4,30.10,ESE,113,0.0,0.0,60,0.00,,,0.00,WUHU216HW,2013-07-18 20:00:00,
2013-07-18 16:05:00,90.2,74.4,30.10,ESE,113,0.0,0.0,60,0.00,,,0.00,WUHU216HW,2013-07-18 20:05:00,
2013-07-18 16:30:00,91.1,73.6,30.09,East,90,0.0,0.0,57,0.00,,,0.00,WUHU216HW,2013-07-18 20:30:00,
2013-07-18 16:35:00,91.1,73.6,30.09,East,90,0.0,0.0,57,0.00,,,0.00,WUHU216HW,2013-07-18 20:35:00,
2013-07-18 16:59:00,91.1,74.7,30.08,SSE,158,0.0,0.0,59,0.00,,,0.00,WUHU216HW,2013-07-18 20:59:00,
2013-07-18 17:00:00,91.1,74.7,30.08,SSE,158,0.0,0.0,59,0.00,,,0.00,WUHU216HW,2013-07-18 21:00:00,
2013-07-18 17:05:00,91.1,74.7,30.08,SSE,158,0.0,0.0,59,0.00,,,0.00,WUHU216HW,2013-07-18 21:05:00,
2013-07-18 17:30:00,90.5,75.2,30.07,SSW,203,0.4,0.4,61,0.00,,,0.00,WUHU216HW,2013-07-18 21:30:00,
2013-07-18 17:35:00,90.5,75.2,30.07,SSW,203,0.4,0.4,61,0.00,,,0.00,WUHU216HW,2013-07-18 21:35:00,
2013-07-18 18:00:00,90.7,73.9,30.07,NNW,338,5.0,5.0,58,0.00,,,0.00,WUHU216HW,2013-07-18 22:00:00,
2013-07-18 18:05:00,90.7,73.9,30.07,NNW,338,5.0,5.0,58,0.00,,,0.00,WUHU216HW,2013-07-18 22:05:00,
2013-07-18 18:30:00,83.7,71.6,30.07,SW,225,0.4,0.4,67,0.00,,,0.00,WUHU216HW,2013-07-18 22:30:00,
2013-07-18 18:35:00,83.7,71.6,30.07,SW,225,0.4,0.4,67,0.00,,,0.00,WUHU216HW,2013-07-18 22:35:00,
2013-07-18 19:00:00,82.6,73.1,30.07,South,180,0.0,0.0,73,0.06,,,0.06,WUHU216HW,2013-07-18 23:00:00,
2013-07-18 19:05:00,82.6,73.1,30.07,South,180,0.0,0.0,73,0.06,,,0.06,WUHU216HW,2013-07-18 23:05:00,
2013-07-18 19:30:00,83.0,73.0,30.08,South,180,0.0,0.0,72,0.00,,,0.06,WUHU216HW,2013-07-18 23:30:00,
2013-07-18 19:35:00,83.0,73.0,30.08,South,180,0.0,0.0,72,0.00,,,0.06,WUHU216HW,2013-07-18 23:35:00,
2013-07-18 20:00:00,83.0,73.5,30.10,SSW,203,0.0,0.0,73,0.00,,,0.06,WUHU216HW,2013-07-19 00:00:00,
2013-07-18 20:05:00,83.0,73.5,30.10,SSW,203,0.0,0.0,73,0.00,,,0.06,WUHU216HW,2013-07-19 00:05:00,
2013-07-18 20:30:00,82.6,73.1,30.10,SSW,203,0.0,0.0,73,0.00,,,0.06,WUHU216HW,2013-07-19 00:30:00,
2013-07-18 20:35:00,82.6,73.1,30.10,SSW,203,0.0,0.0,73,0.00,,,0.06,WUHU216HW,2013-07-19 00:35:00,
2013-07-18 21:00:00,82.6,72.6,30.11,SSW,203,0.0,0.0,72,0.00,,,0.06,WUHU216HW,2013-07-19 01:00:00,
2013-07-18 21:05:00,82.6,72.6,30.11,SSW,203,0.0,0.0,72,0.00,,,0.06,WUHU216HW,2013-07-19 01:05:00,
2013-07-18 21:30:00,82.4,72.5,30.11,SSW,203,0.0,0.0,72,0.00,,,0.06,WUHU216HW,2013-07-19 01:30:00,
2013-07-18 21:35:00,82.4,72.5,30.11,SSW,203,0.0,0.0,72,0.00,,,0.06,WUHU216HW,2013-07-19 01:35:00,
2013-07-18 21:59:00,80.6,70.4,30.12,SSW,203,0.0,0.0,71,0.00,,,0.06,WUHU216HW,2013-07-19 01:59:00,
2013-07-18 22:00:00,80.6,70.4,30.12,SSW,203,0.0,0.0,71,0.00,,,0.06,WUHU216HW,2013-07-19 02:00:00,
2013-07-18 22:05:00,80.6,70.4,30.12,SSW,203,0.0,0.0,71,0.00,,,0.06,WUHU216HW,2013-07-19 02:05:00,
2013-07-18 22:30:00,80.5,71.0,30.12,SSW,203,0.0,0.0,73,0.00,,,0.06,WUHU216HW,2013-07-19 02:30:00,
2013-07-18 22:35:00,80.5,71.0,30.12,SSW,203,0.0,0.0,73,0.00,,,0.06,WUHU216HW,2013-07-19 02:35:00,
2013-07-18 22:59:00,80.6,71.2,30.12,SSW,203,0.0,0.0,73,0.00,,,0.06,WUHU216HW,2013-07-19 02:59:00,
2013-07-18 23:00:00,80.6,71.2,30.12,SSW,203,0.0,0.0,73,0.00,,,0.06,WUHU216HW,2013-07-19 03:00:00,
2013-07-18 23:05:00,80.6,71.2,30.12,SSW,203,0.0,0.0,73,0.00,,,0.06,WUHU216HW,2013-07-19 03:05:00,
2013-07-18 23:30:00,79.7,70.3,30.12,SSE,158,0.0,0.0,73,0.00,,,0.06,WUHU216HW,2013-07-19 03:30:00,
2013-07-18 23:35:00,79.7,70.3,30.12,SSE,158,0.0,0.0,73,0.00,,,0.06,WUHU216HW,2013-07-19 03:35:00,
2013-07-18 23:59:00,78.8,70.2,30.13,South,180,0.0,0.0,75,0.00,,,0.06,WUHU216HW,2013-07-19 03:59:00,